sensor_id;sensor_type;location;lat;lon;timestamp;pressure;altitude;pressure_sealevel;temperature;humidity
63111;BME280;49201;53.426;10.300;2023-03-20T00:00:15;101749.44;;;9.22;100.00
63111;BME280;49201;53.426;10.300;2023-03-20T00:02:41;101746.88;;;9.22;100.00
63111;BME280;49201;53.426;10.300;2023-03-20T00:05:18;101747.81;;;9.24;100.00
63111;BME280;49201;53.426;10.300;2023-03-20T00:07:46;101744.38;;;9.24;100.00
63111;BME280;49201;53.426;10.300;2023-03-20T00:10:14;101753.63;;;9.20;100.00
63111;BME280;49201;53.426;10.300;2023-03-20T00:12:41;101746.78;;;9.19;100.00
63111;BME280;49201;53.426;10.300;2023-03-20T00:15:21;101750.31;;;9.23;100.00
63111;BME280;49201;53.426;10.300;2023-03-20T00:17:47;101743.53;;;9.23;100.00
63111;BME280;49201;53.426;10.300;2023-03-20T00:20:14;101747.00;;;9.25;100.00
63111;BME280;49201;53.426;10.300;2023-03-20T00:22:40;101748.69;;;9.25;100.00
63111;BME280;49201;53.426;10.300;2023-03-20T00:25:06;101740.22;;;9.26;100.00
63111;BME280;49201;53.426;10.300;2023-03-20T00:27:31;101747.00;;;9.25;100.00
63111;BME280;49201;53.426;10.300;2023-03-20T00:29:57;101741.00;;;9.25;100.00
63111;BME280;49201;53.426;10.300;2023-03-20T00:32:23;101734.97;;;9.23;100.00
63111;BME280;49201;53.426;10.300;2023-03-20T00:34:48;101733.41;;;9.26;100.00
63111;BME280;49201;53.426;10.300;2023-03-20T00:37:14;101724.94;;;9.27;100.00
63111;BME280;49201;53.426;10.300;2023-03-20T00:39:39;101732.56;;;9.26;100.00
63111;BME280;49201;53.426;10.300;2023-03-20T00:42:06;101733.34;;;9.25;100.00
63111;BME280;49201;53.426;10.300;2023-03-20T00:44:47;101734.22;;;9.25;100.00
63111;BME280;49201;53.426;10.300;2023-03-20T00:47:22;101730.78;;;9.25;100.00
63111;BME280;49201;53.426;10.300;2023-03-20T00:49:49;101723.09;;;9.23;100.00
63111;BME280;49201;53.426;10.300;2023-03-20T00:52:19;101724.81;;;9.24;100.00
63111;BME280;49201;53.426;10.300;2023-03-20T00:54:45;101726.41;;;9.21;100.00
63111;BME280;49201;53.426;10.300;2023-03-20T00:57:26;101714.38;;;9.18;100.00
63111;BME280;49201;53.426;10.300;2023-03-20T00:59:57;101721.16;;;9.18;100.00
63111;BME280;49201;53.426;10.300;2023-03-20T01:02:28;101719.44;;;9.17;100.00
63111;BME280;49201;53.426;10.300;2023-03-20T01:04:54;101721.09;;;9.16;100.00
63111;BME280;49201;53.426;10.300;2023-03-20T01:07:19;101722.72;;;9.14;100.00
63111;BME280;49201;53.426;10.300;2023-03-20T01:09:45;101719.28;;;9.14;100.00
63111;BME280;49201;53.426;10.300;2023-03-20T01:12:12;101718.41;;;9.13;100.00
63111;BME280;49201;53.426;10.300;2023-03-20T01:14:40;101722.59;;;9.11;100.00
63111;BME280;49201;53.426;10.300;2023-03-20T01:17:10;101722.53;;;9.10;100.00
63111;BME280;49201;53.426;10.300;2023-03-20T01:19:41;101719.91;;;9.08;100.00
63111;BME280;49201;53.426;10.300;2023-03-20T01:22:06;101711.41;;;9.08;100.00
63111;BME280;49201;53.426;10.300;2023-03-20T01:24:32;101719.06;;;9.08;100.00
63111;BME280;49201;53.426;10.300;2023-03-20T01:26:58;101728.25;;;9.04;100.00
63111;BME280;49201;53.426;10.300;2023-03-20T01:29:27;101723.16;;;9.04;100.00
63111;BME280;49201;53.426;10.300;2023-03-20T01:31:53;101722.31;;;9.04;100.00
63111;BME280;49201;53.426;10.300;2023-03-20T01:34:21;101723.16;;;9.04;100.00
63111;BME280;49201;53.426;10.300;2023-03-20T01:36:49;101726.53;;;9.03;100.00
63111;BME280;49201;53.426;10.300;2023-03-20T01:39:16;101723.97;;;9.03;100.00
63111;BME280;49201;53.426;10.300;2023-03-20T01:41:43;101730.81;;;9.04;100.00
63111;BME280;49201;53.426;10.300;2023-03-20T01:44:25;101727.41;;;9.04;100.00
63111;BME280;49201;53.426;10.300;2023-03-20T01:46:55;101725.72;;;9.04;100.00
63111;BME280;49201;53.426;10.300;2023-03-20T01:51:49;101729.22;;;9.06;100.00
63111;BME280;49201;53.426;10.300;2023-03-20T01:54:28;101719.91;;;9.08;100.00
63111;BME280;49201;53.426;10.300;2023-03-20T01:57:05;101734.50;;;9.11;100.00
63111;BME280;49201;53.426;10.300;2023-03-20T01:59:43;101724.28;;;9.11;100.00
63111;BME280;49201;53.426;10.300;2023-03-20T02:02:13;101724.28;;;9.11;100.00
63111;BME280;49201;53.426;10.300;2023-03-20T02:04:44;101720.97;;;9.13;100.00
63111;BME280;49201;53.426;10.300;2023-03-20T02:07:15;101720.97;;;9.13;100.00
63111;BME280;49201;53.426;10.300;2023-03-20T02:10:05;101726.91;;;9.12;100.00
63111;BME280;49201;53.426;10.300;2023-03-20T02:12:40;101729.50;;;9.14;100.00
63111;BME280;49201;53.426;10.300;2023-03-20T02:15:08;101727.03;;;9.15;100.00
63111;BME280;49201;53.426;10.300;2023-03-20T02:17:56;101732.19;;;9.17;100.00
63111;BME280;49201;53.426;10.300;2023-03-20T02:20:49;101729.66;;;9.17;100.00
63111;BME280;49201;53.426;10.300;2023-03-20T02:26:16;101718.59;;;9.18;100.00
63111;BME280;49201;53.426;10.300;2023-03-20T02:34:29;101718.59;;;9.18;100.00
63111;BME280;49201;53.426;10.300;2023-03-20T02:45:06;101705.22;;;9.23;100.00
63111;BME280;49201;53.426;10.300;2023-03-20T02:47:51;101707.78;;;9.25;100.00
63111;BME280;49201;53.426;10.300;2023-03-20T02:50:54;101707.00;;;9.26;100.00
63111;BME280;49201;53.426;10.300;2023-03-20T02:59:25;101701.06;;;9.27;100.00
63111;BME280;49201;53.426;10.300;2023-03-20T03:02:21;101709.66;;;9.29;100.00
63111;BME280;49201;53.426;10.300;2023-03-20T03:04:59;101704.59;;;9.30;100.00
63111;BME280;49201;53.426;10.300;2023-03-20T03:07:29;101700.44;;;9.32;100.00
63111;BME280;49201;53.426;10.300;2023-03-20T03:10:24;101708.13;;;9.32;100.00
63111;BME280;49201;53.426;10.300;2023-03-20T03:12:54;101708.16;;;9.34;100.00
63111;BME280;49201;53.426;10.300;2023-03-20T03:15:30;101708.91;;;9.31;100.00
63111;BME280;49201;53.426;10.300;2023-03-20T03:17:58;101705.50;;;9.31;100.00
63111;BME280;49201;53.426;10.300;2023-03-20T03:20:33;101697.00;;;9.32;100.00
63111;BME280;49201;53.426;10.300;2023-03-20T03:22:59;101704.66;;;9.32;100.00
63111;BME280;49201;53.426;10.300;2023-03-20T03:25:29;101706.47;;;9.34;100.00
63111;BME280;49201;53.426;10.300;2023-03-20T03:30:52;101703.84;;;9.33;100.00
63111;BME280;49201;53.426;10.300;2023-03-20T03:35:48;101705.56;;;9.32;100.00
63111;BME280;49201;53.426;10.300;2023-03-20T03:44:18;101703.63;;;9.27;100.00
63111;BME280;49201;53.426;10.300;2023-03-20T03:46:59;101698.59;;;9.28;100.00
63111;BME280;49201;53.426;10.300;2023-03-20T03:49:31;101693.47;;;9.28;100.00
63111;BME280;49201;53.426;10.300;2023-03-20T03:52:02;101690.91;;;9.28;100.00
63111;BME280;49201;53.426;10.300;2023-03-20T03:54:37;101690.91;;;9.28;100.00
63111;BME280;49201;53.426;10.300;2023-03-20T03:57:46;101686.50;;;9.24;100.00
63111;BME280;49201;53.426;10.300;2023-03-20T04:00:21;101685.63;;;9.24;100.00
63111;BME280;49201;53.426;10.300;2023-03-20T04:02:51;101683.06;;;9.24;100.00
63111;BME280;49201;53.426;10.300;2023-03-20T04:05:18;101681.38;;;9.24;100.00
63111;BME280;49201;53.426;10.300;2023-03-20T04:07:46;101686.50;;;9.24;100.00
63111;BME280;49201;53.426;10.300;2023-03-20T04:10:13;101684.75;;;9.23;100.00
63111;BME280;49201;53.426;10.300;2023-03-20T04:12:41;101688.22;;;9.25;100.00
63111;BME280;49201;53.426;10.300;2023-03-20T04:15:09;101686.50;;;9.24;100.00
63111;BME280;49201;53.426;10.300;2023-03-20T04:17:35;101683.81;;;9.21;100.00
63111;BME280;49201;53.426;10.300;2023-03-20T04:20:01;101688.94;;;9.21;100.00
63111;BME280;49201;53.426;10.300;2023-03-20T04:22:26;101685.47;;;9.19;100.00
63111;BME280;49201;53.426;10.300;2023-03-20T04:24:53;101694.84;;;9.20;100.00
63111;BME280;49201;53.426;10.300;2023-03-20T04:27:19;101691.41;;;9.20;100.00
63111;BME280;49201;53.426;10.300;2023-03-20T04:29:45;101688.81;;;9.18;100.00
63111;BME280;49201;53.426;10.300;2023-03-20T04:32:30;101687.94;;;9.18;100.00
63111;BME280;49201;53.426;10.300;2023-03-20T04:35:08;101684.56;;;9.19;100.00
63111;BME280;49201;53.426;10.300;2023-03-20T04:38:00;101683.59;;;9.15;100.00
63111;BME280;49201;53.426;10.300;2023-03-20T04:40:29;101683.41;;;9.11;100.00
63111;BME280;49201;53.426;10.300;2023-03-20T04:42:55;101689.47;;;9.13;100.00
63111;BME280;49201;53.426;10.300;2023-03-20T04:45:21;101682.63;;;9.13;100.00
63111;BME280;49201;53.426;10.300;2023-03-20T04:47:47;101679.94;;;9.09;100.00
63111;BME280;49201;53.426;10.300;2023-03-20T04:50:13;101685.78;;;9.06;100.00
63111;BME280;49201;53.426;10.300;2023-03-20T04:52:38;101682.28;;;9.04;100.00
63111;BME280;49201;53.426;10.300;2023-03-20T04:55:06;101687.38;;;9.03;100.00
63111;BME280;49201;53.426;10.300;2023-03-20T04:57:32;101680.47;;;9.02;100.00
63111;BME280;49201;53.426;10.300;2023-03-20T04:59:58;101683.00;;;9.00;100.00
63111;BME280;49201;53.426;10.300;2023-03-20T05:02:23;101685.44;;;8.97;100.00
63111;BME280;49201;53.426;10.300;2023-03-20T05:04:49;101685.44;;;8.97;100.00
63111;BME280;49201;53.426;10.300;2023-03-20T05:07:15;101680.19;;;8.94;100.00
63111;BME280;49201;53.426;10.300;2023-03-20T05:10:02;101688.75;;;8.95;100.00
63111;BME280;49201;53.426;10.300;2023-03-20T05:12:32;101683.56;;;8.93;100.00
63111;BME280;49201;53.426;10.300;2023-03-20T05:15:16;101677.56;;;8.93;100.00
63111;BME280;49201;53.426;10.300;2023-03-20T05:18:01;101679.91;;;8.87;100.00
63111;BME280;49201;53.426;10.300;2023-03-20T05:20:36;101679.72;;;8.82;100.00
63111;BME280;49201;53.426;10.300;2023-03-20T05:23:21;101687.47;;;8.84;100.00
63111;BME280;49201;53.426;10.300;2023-03-20T05:26:13;101686.44;;;8.80;100.00
63111;BME280;49201;53.426;10.300;2023-03-20T05:29:11;101686.63;;;8.85;100.00
63111;BME280;49201;53.426;10.300;2023-03-20T05:31:57;101684.84;;;8.82;100.00
63111;BME280;49201;53.426;10.300;2023-03-20T05:34:37;101682.22;;;8.81;100.00
63111;BME280;49201;53.426;10.300;2023-03-20T05:37:15;101685.75;;;8.84;100.00
63111;BME280;49201;53.426;10.300;2023-03-20T05:40:01;101692.50;;;8.82;100.00
63111;BME280;49201;53.426;10.300;2023-03-20T05:42:47;101695.97;;;8.84;100.00
63111;BME280;49201;53.426;10.300;2023-03-20T05:45:19;101692.59;;;8.85;100.00
63111;BME280;49201;53.426;10.300;2023-03-20T05:48:07;101702.81;;;8.85;100.00
63111;BME280;49201;53.426;10.300;2023-03-20T05:50:38;101704.25;;;8.79;100.00
63111;BME280;49201;53.426;10.300;2023-03-20T05:53:11;101705.13;;;8.79;100.00
63111;BME280;49201;53.426;10.300;2023-03-20T05:55:57;101708.56;;;8.80;100.00
63111;BME280;49201;53.426;10.300;2023-03-20T05:58:25;101709.31;;;8.77;100.00
63111;BME280;49201;53.426;10.300;2023-03-20T06:01:14;101710.25;;;8.79;100.00
63111;BME280;49201;53.426;10.300;2023-03-20T06:03:54;101711.91;;;8.79;100.00
63111;BME280;49201;53.426;10.300;2023-03-20T06:06:39;101716.16;;;8.78;100.00
63111;BME280;49201;53.426;10.300;2023-03-20T06:09:06;101711.97;;;8.80;100.00
63111;BME280;49201;53.426;10.300;2023-03-20T06:11:32;101721.34;;;8.80;100.00
63111;BME280;49201;53.426;10.300;2023-03-20T06:13:57;101722.25;;;8.82;100.00
63111;BME280;49201;53.426;10.300;2023-03-20T06:16:30;101713.72;;;8.81;100.00
63111;BME280;49201;53.426;10.300;2023-03-20T06:18:55;101718.09;;;8.84;100.00
63111;BME280;49201;53.426;10.300;2023-03-20T06:21:21;101716.41;;;8.84;100.00
63111;BME280;49201;53.426;10.300;2023-03-20T06:23:46;101724.94;;;8.85;100.00
63111;BME280;49201;53.426;10.300;2023-03-20T06:26:12;101725.00;;;8.86;100.00
63111;BME280;49201;53.426;10.300;2023-03-20T06:28:58;101723.31;;;8.87;100.00
63111;BME280;49201;53.426;10.300;2023-03-20T06:31:23;101717.38;;;8.88;100.00
63111;BME280;49201;53.426;10.300;2023-03-20T06:33:49;101717.59;;;8.92;100.00
63111;BME280;49201;53.426;10.300;2023-03-20T06:36:15;101726.97;;;8.93;100.00
63111;BME280;49201;53.426;10.300;2023-03-20T06:38:40;101730.34;;;8.92;100.00
63111;BME280;49201;53.426;10.300;2023-03-20T06:41:10;101735.59;;;8.95;100.00
63111;BME280;49201;53.426;10.300;2023-03-20T06:43:36;101733.16;;;8.98;100.00
63111;BME280;49201;53.426;10.300;2023-03-20T06:46:04;101732.38;;;9.01;100.00
63111;BME280;49201;53.426;10.300;2023-03-20T06:48:31;101732.47;;;9.02;100.00
63111;BME280;49201;53.426;10.300;2023-03-20T06:50:59;101733.22;;;9.00;100.00
63111;BME280;49201;53.426;10.300;2023-03-20T06:53:31;101732.47;;;9.02;100.00
63111;BME280;49201;53.426;10.300;2023-03-20T06:56:05;101730.88;;;9.06;100.00
63111;BME280;49201;53.426;10.300;2023-03-20T06:58:30;101728.41;;;9.07;100.00
63111;BME280;49201;53.426;10.300;2023-03-20T07:00:56;101734.31;;;9.06;100.00
63111;BME280;49201;53.426;10.300;2023-03-20T07:03:21;101739.50;;;9.08;100.00
63111;BME280;49201;53.426;10.300;2023-03-20T07:05:48;101736.06;;;9.07;100.00
63111;BME280;49201;53.426;10.300;2023-03-20T07:08:14;101748.22;;;9.13;100.00
63111;BME280;49201;53.426;10.300;2023-03-20T07:10:40;101749.81;;;9.11;100.00
63111;BME280;49201;53.426;10.300;2023-03-20T07:13:05;101745.59;;;9.11;100.00
63111;BME280;49201;53.426;10.300;2023-03-20T07:15:33;101744.91;;;9.15;100.00
63111;BME280;49201;53.426;10.300;2023-03-20T07:17:58;101753.50;;;9.17;100.00
63111;BME280;49201;53.426;10.300;2023-03-20T07:20:26;101754.44;;;9.19;100.00
63111;BME280;49201;53.426;10.300;2023-03-20T07:22:51;101757.97;;;9.23;100.00
63111;BME280;49201;53.426;10.300;2023-03-20T07:25:21;101752.88;;;9.23;100.00
63111;BME280;49201;53.426;10.300;2023-03-20T07:27:47;101758.97;;;9.26;100.00
63111;BME280;49201;53.426;10.300;2023-03-20T07:30:16;101756.34;;;9.25;100.00
63111;BME280;49201;53.426;10.300;2023-03-20T07:32:43;101760.41;;;9.20;100.00
63111;BME280;49201;53.426;10.300;2023-03-20T07:35:10;101760.38;;;9.18;100.00
63111;BME280;49201;53.426;10.300;2023-03-20T07:37:38;101754.25;;;9.15;100.00
63111;BME280;49201;53.426;10.300;2023-03-20T07:40:04;101759.56;;;9.19;100.00
63111;BME280;49201;53.426;10.300;2023-03-20T07:42:31;101761.34;;;9.22;100.00
63111;BME280;49201;53.426;10.300;2023-03-20T07:45:04;101761.28;;;9.20;100.00
63111;BME280;49201;53.426;10.300;2023-03-20T07:47:31;101765.72;;;9.24;100.00
63111;BME280;49201;53.426;10.300;2023-03-20T07:49:56;101764.66;;;9.19;100.00
63111;BME280;49201;53.426;10.300;2023-03-20T07:52:22;101767.09;;;9.16;100.00
63111;BME280;49201;53.426;10.300;2023-03-20T07:54:47;101766.25;;;9.17;100.00
63111;BME280;49201;53.426;10.300;2023-03-20T07:57:13;101768.06;;;9.20;100.00
63111;BME280;49201;53.426;10.300;2023-03-20T07:59:38;101771.75;;;9.26;100.00
63111;BME280;49201;53.426;10.300;2023-03-20T08:02:04;101766.13;;;9.35;100.00
63111;BME280;49201;53.426;10.300;2023-03-20T08:04:29;101769.00;;;9.42;100.00
63111;BME280;49201;53.426;10.300;2023-03-20T08:06:55;101769.97;;;9.46;100.00
63111;BME280;49201;53.426;10.300;2023-03-20T08:09:20;101769.09;;;9.45;100.00
63111;BME280;49201;53.426;10.300;2023-03-20T08:11:46;101767.63;;;9.52;100.00
63111;BME280;49201;53.426;10.300;2023-03-20T08:14:11;101775.25;;;9.50;100.00
63111;BME280;49201;53.426;10.300;2023-03-20T08:16:37;101766.81;;;9.53;100.00
63111;BME280;49201;53.426;10.300;2023-03-20T08:19:02;101765.22;;;9.55;100.00
63111;BME280;49201;53.426;10.300;2023-03-20T08:21:30;101773.00;;;9.58;100.00
63111;BME280;49201;53.426;10.300;2023-03-20T08:23:56;101768.94;;;9.63;100.00
63111;BME280;49201;53.426;10.300;2023-03-20T08:26:22;101781.88;;;9.67;100.00
63111;BME280;49201;53.426;10.300;2023-03-20T08:28:48;101774.69;;;9.79;100.00
63111;BME280;49201;53.426;10.300;2023-03-20T08:31:15;101779.13;;;9.85;100.00
63111;BME280;49201;53.426;10.300;2023-03-20T08:33:44;101786.16;;;9.90;100.00
63111;BME280;49201;53.426;10.300;2023-03-20T08:36:09;101791.22;;;9.89;100.00
63111;BME280;49201;53.426;10.300;2023-03-20T08:38:35;101791.91;;;9.85;100.00
63111;BME280;49201;53.426;10.300;2023-03-20T08:41:01;101798.38;;;9.97;100.00
63111;BME280;49201;53.426;10.300;2023-03-20T08:43:26;101795.84;;;9.97;100.00
63111;BME280;49201;53.426;10.300;2023-03-20T08:45:52;101800.25;;;10.01;100.00
63111;BME280;49201;53.426;10.300;2023-03-20T08:48:18;101795.78;;;9.96;100.00
63111;BME280;49201;53.426;10.300;2023-03-20T08:50:44;101801.66;;;9.93;100.00
63111;BME280;49201;53.426;10.300;2023-03-20T08:53:09;101794.03;;;9.95;100.00
63111;BME280;49201;53.426;10.300;2023-03-20T08:55:35;101794.06;;;9.96;100.00
63111;BME280;49201;53.426;10.300;2023-03-20T08:58:00;101795.00;;;9.98;100.00
63111;BME280;49201;53.426;10.300;2023-03-20T09:00:25;101794.06;;;9.96;100.00
63111;BME280;49201;53.426;10.300;2023-03-20T09:02:51;101788.03;;;9.94;100.00
63111;BME280;49201;53.426;10.300;2023-03-20T09:05:17;101794.03;;;9.95;100.00
63111;BME280;49201;53.426;10.300;2023-03-20T09:07:43;101800.81;;;9.94;100.00
63111;BME280;49201;53.426;10.300;2023-03-20T09:10:09;101793.44;;;10.02;100.00
63111;BME280;49201;53.426;10.300;2023-03-20T09:12:34;101795.59;;;10.13;100.00
63111;BME280;49201;53.426;10.300;2023-03-20T09:15:00;101792.41;;;10.19;100.00
63111;BME280;49201;53.426;10.300;2023-03-20T09:17:26;101791.19;;;10.33;100.00
63111;BME280;49201;53.426;10.300;2023-03-20T09:19:51;101788.69;;;10.34;100.00
63111;BME280;49201;53.426;10.300;2023-03-20T09:22:17;101792.09;;;10.35;100.00
63111;BME280;49201;53.426;10.300;2023-03-20T09:24:43;101796.97;;;10.27;100.00
63111;BME280;49201;53.426;10.300;2023-03-20T09:27:09;101786.44;;;10.20;100.00
63111;BME280;49201;53.426;10.300;2023-03-20T09:29:34;101782.53;;;10.29;100.00
63111;BME280;49201;53.426;10.300;2023-03-20T09:32:00;101786.06;;;10.33;100.00
63111;BME280;49201;53.426;10.300;2023-03-20T09:34:26;101773.41;;;10.37;100.00
63111;BME280;49201;53.426;10.300;2023-03-20T09:36:51;101781.78;;;10.32;100.00
63111;BME280;49201;53.426;10.300;2023-03-20T09:39:17;101785.50;;;10.41;100.00
63111;BME280;49201;53.426;10.300;2023-03-20T09:41:47;101787.69;;;10.31;100.00
63111;BME280;49201;53.426;10.300;2023-03-20T09:49:53;101791.00;;;10.28;100.00
63111;BME280;49201;53.426;10.300;2023-03-20T09:52:29;101791.97;;;10.30;100.00
63111;BME280;49201;53.426;10.300;2023-03-20T09:54:59;101797.06;;;10.30;100.00
63111;BME280;49201;53.426;10.300;2023-03-20T09:57:38;101787.88;;;10.35;100.00
63111;BME280;49201;53.426;10.300;2023-03-20T10:05:27;101811.50;;;10.28;100.00
63111;BME280;49201;53.426;10.300;2023-03-20T10:07:55;101797.03;;;10.29;100.00
63111;BME280;49201;53.426;10.300;2023-03-20T10:16:26;101807.06;;;10.23;100.00
63111;BME280;49201;53.426;10.300;2023-03-20T10:19:22;101811.22;;;10.21;100.00
63111;BME280;49201;53.426;10.300;2023-03-20T10:25:05;101819.59;;;10.17;100.00
63111;BME280;49201;53.426;10.300;2023-03-20T10:27:38;101809.44;;;10.18;100.00
63111;BME280;49201;53.426;10.300;2023-03-20T10:30:10;101811.00;;;10.15;100.00
63111;BME280;49201;53.426;10.300;2023-03-20T10:38:22;101804.50;;;10.23;100.00
63111;BME280;49201;53.426;10.300;2023-03-20T10:40:51;101791.00;;;10.28;100.00
63111;BME280;49201;53.426;10.300;2023-03-20T10:43:33;101793.91;;;10.37;100.00
63111;BME280;49201;53.426;10.300;2023-03-20T10:46:03;101789.22;;;10.26;100.00
63111;BME280;49201;53.426;10.300;2023-03-20T10:48:36;101785.56;;;10.19;100.00
63111;BME280;49201;53.426;10.300;2023-03-20T10:51:03;101768.66;;;10.23;100.00
63111;BME280;49201;53.426;10.300;2023-03-20T10:53:36;101774.03;;;10.30;100.00
63111;BME280;49201;53.426;10.300;2023-03-20T10:56:10;101768.91;;;10.30;100.00
63111;BME280;49201;53.426;10.300;2023-03-20T10:58:39;101770.53;;;10.28;100.00
63111;BME280;49201;53.426;10.300;2023-03-20T11:01:05;101780.56;;;10.22;100.00
63111;BME280;49201;53.426;10.300;2023-03-20T11:03:32;101765.91;;;10.18;100.00
63111;BME280;49201;53.426;10.300;2023-03-20T11:06:02;101762.84;;;10.28;100.00
63111;BME280;49201;53.426;10.300;2023-03-20T11:08:33;101757.16;;;10.35;100.00
63111;BME280;49201;53.426;10.300;2023-03-20T11:11:02;101754.53;;;10.34;100.00
63111;BME280;49201;53.426;10.300;2023-03-20T11:15:54;101771.88;;;10.42;100.00
63111;BME280;49201;53.426;10.300;2023-03-20T11:18:24;101766.69;;;10.39;100.00
63111;BME280;49201;53.426;10.300;2023-03-20T11:20:52;101761.81;;;10.47;100.00
63111;BME280;49201;53.426;10.300;2023-03-20T11:23:23;101745.56;;;10.46;100.00
63111;BME280;49201;53.426;10.300;2023-03-20T11:26:10;101737.44;;;10.58;100.00
63111;BME280;49201;53.426;10.300;2023-03-20T11:28:54;101727.03;;;10.78;100.00
63111;BME280;49201;53.426;10.300;2023-03-20T11:36:38;101741.13;;;10.66;100.00
63111;BME280;49201;53.426;10.300;2023-03-20T11:39:22;101729.63;;;10.53;100.00
63111;BME280;49201;53.426;10.300;2023-03-20T11:41:52;101744.41;;;10.62;100.00
63111;BME280;49201;53.426;10.300;2023-03-20T11:44:27;101721.72;;;10.72;100.00
63111;BME280;49201;53.426;10.300;2023-03-20T11:46:58;101722.94;;;10.83;100.00
63111;BME280;49201;53.426;10.300;2023-03-20T11:49:26;101707.59;;;10.85;100.00
63111;BME280;49201;53.426;10.300;2023-03-20T11:51:58;101692.06;;;10.79;100.00
63111;BME280;49201;53.426;10.300;2023-03-20T11:54:26;101686.44;;;10.90;100.00
63111;BME280;49201;53.426;10.300;2023-03-20T11:56:57;101688.22;;;10.93;100.00
63111;BME280;49201;53.426;10.300;2023-03-20T11:59:34;101692.13;;;10.82;100.00
63111;BME280;49201;53.426;10.300;2023-03-20T12:02:16;101706.75;;;10.84;100.00
63111;BME280;49201;53.426;10.300;2023-03-20T12:04:43;101702.25;;;10.77;100.00
63111;BME280;49201;53.426;10.300;2023-03-20T12:07:32;101717.25;;;10.67;100.00
63111;BME280;49201;53.426;10.300;2023-03-20T12:10:09;101710.66;;;10.73;100.00
63111;BME280;49201;53.426;10.300;2023-03-20T12:12:55;101714.91;;;10.73;100.00
63111;BME280;49201;53.426;10.300;2023-03-20T12:15:35;101727.66;;;10.71;100.00
63111;BME280;49201;53.426;10.300;2023-03-20T12:18:09;101727.72;;;10.73;100.00
63111;BME280;49201;53.426;10.300;2023-03-20T12:20:44;101712.84;;;10.63;100.00
63111;BME280;49201;53.426;10.300;2023-03-20T12:23:26;101713.72;;;10.63;100.00
63111;BME280;49201;53.426;10.300;2023-03-20T12:31:19;101731.50;;;10.59;100.00
63111;BME280;49201;53.426;10.300;2023-03-20T12:34:06;101715.22;;;10.57;100.00
63111;BME280;49201;53.426;10.300;2023-03-20T12:36:42;101705.59;;;10.50;100.00
63111;BME280;49201;53.426;10.300;2023-03-20T12:39:13;101724.69;;;10.59;100.00
63111;BME280;49201;53.426;10.300;2023-03-20T12:44:40;101712.97;;;10.66;100.00
63111;BME280;49201;53.426;10.300;2023-03-20T12:47:42;101702.47;;;10.58;100.00
63111;BME280;49201;53.426;10.300;2023-03-20T12:50:36;101711.06;;;10.60;100.00
63111;BME280;49201;53.426;10.300;2023-03-20T13:11:33;101655.81;;;10.95;100.00
63111;BME280;49201;53.426;10.300;2023-03-20T13:15:06;101646.91;;;11.10;100.00
63111;BME280;49201;53.426;10.300;2023-03-20T13:22:19;101565.22;;;11.83;100.00
63111;BME280;49201;53.426;10.300;2023-03-20T13:24:58;101533.81;;;11.91;100.00
63111;BME280;49201;53.426;10.300;2023-03-20T13:27:36;101523.78;;;12.00;100.00
63111;BME280;49201;53.426;10.300;2023-03-20T13:35:33;101532.41;;;11.70;100.00
63111;BME280;49201;53.426;10.300;2023-03-20T13:38:20;101540.72;;;11.61;100.00
63111;BME280;49201;53.426;10.300;2023-03-20T13:40:51;101539.13;;;11.66;100.00
63111;BME280;49201;53.426;10.300;2023-03-20T13:46:08;101501.78;;;11.76;100.00
63111;BME280;49201;53.426;10.300;2023-03-20T13:48:39;101524.91;;;11.77;100.00
63111;BME280;49201;53.426;10.300;2023-03-20T13:56:56;101535.00;;;11.40;100.00
63111;BME280;49201;53.426;10.300;2023-03-20T14:04:44;101535.31;;;11.21;100.00
63111;BME280;49201;53.426;10.300;2023-03-20T14:07:31;101573.69;;;11.18;100.00
63111;BME280;49201;53.426;10.300;2023-03-20T14:12:57;101566.63;;;11.11;100.00
63111;BME280;49201;53.426;10.300;2023-03-20T14:15:27;101579.38;;;11.08;100.00
63111;BME280;49201;53.426;10.300;2023-03-20T14:17:55;101586.84;;;11.02;100.00
63111;BME280;49201;53.426;10.300;2023-03-20T14:20:31;101595.31;;;11.00;100.00
63111;BME280;49201;53.426;10.300;2023-03-20T14:22:58;101584.41;;;11.05;100.00
63111;BME280;49201;53.426;10.300;2023-03-20T14:25:24;101562.94;;;11.02;100.00
63111;BME280;49201;53.426;10.300;2023-03-20T14:33:00;101556.94;;;11.01;100.00
63111;BME280;49201;53.426;10.300;2023-03-20T14:35:35;101565.56;;;11.03;100.00
63111;BME280;49201;53.426;10.300;2023-03-20T14:40:41;101587.63;;;11.00;100.00
63111;BME280;49201;53.426;10.300;2023-03-20T14:46:07;101598.59;;;10.94;100.00
63111;BME280;49201;53.426;10.300;2023-03-20T14:48:44;101613.09;;;10.94;100.00
63111;BME280;49201;53.426;10.300;2023-03-20T14:53:49;101596.03;;;10.94;100.00
63111;BME280;49201;53.426;10.300;2023-03-20T14:56:25;101567.75;;;10.91;100.00
63111;BME280;49201;53.426;10.300;2023-03-20T14:58:55;101591.63;;;10.90;100.00
63111;BME280;49201;53.426;10.300;2023-03-20T15:01:52;101603.69;;;10.93;100.00
63111;BME280;49201;53.426;10.300;2023-03-20T15:09:22;101605.41;;;10.94;100.00
63111;BME280;49201;53.426;10.300;2023-03-20T15:11:50;101584.78;;;10.89;100.00
63111;BME280;49201;53.426;10.300;2023-03-20T15:14:24;101588.16;;;10.88;100.00
63111;BME280;49201;53.426;10.300;2023-03-20T15:16:57;101588.97;;;10.87;100.00
63111;BME280;49201;53.426;10.300;2023-03-20T15:19:23;101597.50;;;10.86;100.00